createdAt,value
2022-08-25T00:01:46.032Z,2.90
2022-08-25T00:04:16.143Z,3.20
2022-08-25T00:06:45.855Z,3.37
2022-08-25T00:09:15.621Z,3.40
2022-08-25T00:11:43.540Z,3.20
2022-08-25T00:14:14.080Z,3.60
2022-08-25T00:16:41.040Z,3.07
2022-08-25T00:19:14.077Z,3.50
2022-08-25T00:21:42.121Z,3.20
2022-08-25T00:24:10.582Z,3.10
2022-08-25T00:26:43.476Z,2.97
2022-08-25T00:29:12.015Z,2.77
2022-08-25T00:31:39.717Z,2.90
2022-08-25T00:34:08.795Z,3.30
2022-08-25T00:36:36.295Z,3.87
2022-08-25T00:39:04.089Z,3.33
2022-08-25T00:41:30.867Z,3.10
2022-08-25T00:44:00.477Z,3.53
2022-08-25T00:46:32.491Z,3.50
2022-08-25T00:49:09.768Z,3.07
2022-08-25T00:51:47.314Z,2.57
2022-08-25T00:54:18.739Z,2.93
2022-08-25T00:56:46.105Z,3.13
2022-08-25T00:59:14.471Z,3.10
2022-08-25T01:01:41.352Z,3.10
2022-08-25T01:04:08.695Z,3.30
2022-08-25T01:06:39.120Z,2.97
2022-08-25T01:09:07.202Z,3.20
2022-08-25T01:11:35.600Z,3.40
2022-08-25T01:14:06.350Z,3.60
2022-08-25T01:16:36.581Z,2.97
2022-08-25T01:19:04.896Z,2.83
2022-08-25T01:21:39.618Z,2.80
2022-08-25T01:24:06.708Z,3.03
2022-08-25T01:26:35.538Z,4.00
2022-08-25T01:29:24.027Z,3.80
2022-08-25T01:31:57.856Z,3.70
2022-08-25T01:34:27.614Z,3.63
2022-08-25T01:36:56.073Z,3.70
2022-08-25T01:39:23.484Z,3.07
2022-08-25T01:42:27.182Z,3.30
2022-08-25T01:44:54.472Z,3.30
2022-08-25T01:47:21.294Z,3.60
2022-08-25T01:49:48.537Z,3.43
2022-08-25T01:52:23.500Z,2.73
2022-08-25T01:54:50.264Z,3.00
2022-08-25T01:57:17.229Z,3.10
2022-08-25T01:59:44.861Z,3.50
2022-08-25T02:02:12.094Z,3.40
2022-08-25T02:04:39.497Z,2.93
2022-08-25T02:07:09.452Z,3.20
2022-08-25T02:09:37.814Z,3.97
2022-08-25T02:12:04.834Z,3.37
2022-08-25T02:14:31.626Z,2.83
2022-08-25T02:16:58.451Z,3.40
2022-08-25T02:19:26.379Z,3.47
2022-08-25T02:21:53.317Z,3.43
2022-08-25T02:24:20.545Z,2.80
2022-08-25T02:26:47.573Z,2.90
2022-08-25T02:29:14.585Z,3.77
2022-08-25T02:31:41.489Z,4.03
2022-08-25T02:34:09.949Z,3.47
2022-08-25T02:36:38.136Z,3.20
2022-08-25T02:39:07.621Z,3.17
2022-08-25T02:41:34.959Z,2.77
2022-08-25T02:44:03.522Z,3.70
2022-08-25T02:46:30.906Z,3.50
2022-08-25T02:48:58.541Z,3.20
2022-08-25T02:51:28.446Z,3.20
2022-08-25T02:53:56.246Z,3.83
2022-08-25T02:56:24.485Z,3.87
2022-08-25T02:58:51.307Z,3.77
2022-08-25T03:01:18.074Z,3.20
2022-08-25T03:03:47.233Z,3.73
2022-08-25T03:06:15.990Z,4.20
2022-08-25T03:08:43.892Z,3.70
2022-08-25T03:11:10.952Z,3.63
2022-08-25T03:13:38.170Z,3.53
2022-08-25T03:16:11.359Z,4.07
2022-08-25T03:18:41.079Z,3.63
2022-08-25T03:21:11.343Z,3.80
2022-08-25T03:23:39.069Z,3.80
2022-08-25T03:26:24.284Z,4.00
2022-08-25T03:28:51.220Z,3.90
2022-08-25T03:31:18.979Z,3.60
2022-08-25T03:33:46.027Z,3.57
2022-08-25T03:36:12.725Z,4.40
2022-08-25T03:38:39.803Z,4.10
2022-08-25T03:41:15.038Z,3.80
2022-08-25T03:43:42.137Z,4.40
2022-08-25T03:46:09.019Z,4.83
2022-08-25T03:48:35.703Z,4.10
2022-08-25T03:51:02.409Z,3.80
2022-08-25T03:53:29.138Z,4.00
2022-08-25T03:55:56.038Z,3.47
2022-08-25T03:58:22.678Z,4.10
2022-08-25T04:00:49.329Z,4.10
2022-08-25T04:03:17.212Z,3.87
2022-08-25T04:05:43.953Z,4.27
2022-08-25T04:08:11.520Z,4.90
2022-08-25T04:10:38.283Z,4.03
2022-08-25T04:13:05.609Z,4.33
2022-08-25T04:15:32.293Z,4.27
2022-08-25T04:17:59.157Z,4.37
2022-08-25T04:20:26.469Z,5.17
2022-08-25T04:22:53.275Z,4.47
2022-08-25T04:25:20.142Z,4.73
2022-08-25T04:27:46.887Z,4.30
2022-08-25T04:30:14.574Z,3.90
2022-08-25T04:32:41.338Z,4.00
2022-08-25T04:35:09.273Z,5.10
2022-08-25T04:37:35.931Z,5.93
2022-08-25T04:40:03.129Z,5.03
2022-08-25T04:42:29.917Z,5.07
2022-08-25T04:44:56.666Z,4.63
2022-08-25T04:47:23.744Z,4.67
2022-08-25T04:49:50.804Z,4.37
2022-08-25T04:52:17.460Z,3.70
2022-08-25T04:54:44.190Z,5.20
2022-08-25T04:57:11.182Z,5.00
2022-08-25T04:59:38.518Z,4.80
2022-08-25T05:02:06.654Z,5.10
2022-08-25T05:04:35.474Z,4.60
2022-08-25T05:07:03.162Z,5.17
2022-08-25T05:09:32.650Z,4.77
2022-08-25T05:12:03.688Z,4.17
2022-08-25T05:14:31.930Z,5.10
2022-08-25T05:16:58.740Z,5.00
2022-08-25T05:19:26.348Z,4.60
2022-08-25T05:21:53.852Z,5.10
2022-08-25T05:24:21.504Z,5.00
2022-08-25T05:26:48.181Z,4.73
2022-08-25T05:29:15.584Z,4.60
2022-08-25T05:31:48.268Z,4.80
2022-08-25T05:34:18.806Z,5.10
2022-08-25T05:36:45.877Z,5.27
2022-08-25T05:39:12.901Z,5.17
2022-08-25T05:41:39.581Z,5.20
2022-08-25T05:44:06.570Z,5.97
2022-08-25T05:46:33.290Z,4.73
2022-08-25T05:49:00.022Z,5.13
2022-08-25T05:51:26.971Z,5.80
2022-08-25T05:53:54.038Z,5.20
2022-08-25T05:56:21.232Z,5.47
2022-08-25T05:58:48.018Z,5.27
2022-08-25T06:01:48.073Z,5.43
2022-08-25T06:04:22.409Z,5.67
2022-08-25T06:06:50.778Z,5.33
2022-08-25T06:09:17.431Z,5.10
2022-08-25T06:11:44.784Z,6.03
2022-08-25T06:14:11.600Z,6.20
2022-08-25T06:16:39.623Z,5.30
2022-08-25T06:19:07.930Z,6.53
2022-08-25T06:21:34.708Z,6.50
2022-08-25T06:24:01.932Z,6.90
2022-08-25T06:26:28.625Z,7.10
2022-08-25T06:28:55.350Z,7.30
2022-08-25T06:31:22.398Z,7.47
2022-08-25T06:33:50.054Z,6.63
2022-08-25T06:36:17.316Z,5.73
2022-08-25T06:38:44.030Z,6.80
2022-08-25T06:41:10.835Z,6.30
2022-08-25T06:43:37.668Z,6.30
2022-08-25T06:46:16.297Z,7.50
2022-08-25T06:48:43.390Z,7.50
2022-08-25T06:51:14.069Z,7.63
2022-08-25T06:53:41.651Z,6.80
2022-08-25T06:56:09.171Z,7.80
2022-08-25T06:58:36.666Z,6.67
2022-08-25T07:01:23.269Z,7.63
2022-08-25T07:03:57.395Z,7.27
2022-08-25T07:06:25.513Z,6.97
2022-08-25T07:08:52.336Z,6.40
2022-08-25T07:11:21.367Z,7.20
2022-08-25T07:13:49.040Z,6.60
2022-08-25T07:16:16.278Z,7.77
2022-08-25T07:18:44.212Z,7.30
2022-08-25T07:21:12.303Z,6.70
2022-08-25T07:23:40.043Z,6.30
2022-08-25T07:26:38.178Z,7.17
2022-08-25T07:29:13.887Z,6.33
2022-08-25T07:31:41.437Z,6.60
2022-08-25T07:34:26.843Z,7.53
2022-08-25T07:36:56.487Z,7.73
2022-08-25T07:39:24.678Z,6.70
2022-08-25T07:41:52.166Z,7.17
2022-08-25T07:44:21.359Z,6.93
2022-08-25T07:46:48.629Z,7.30
2022-08-25T07:49:17.980Z,7.90
2022-08-25T07:52:03.975Z,6.97
2022-08-25T07:54:34.076Z,7.60
2022-08-25T07:57:05.919Z,7.67
2022-08-25T07:59:39.323Z,6.90
2022-08-25T08:02:16.007Z,7.40
2022-08-25T08:04:48.447Z,6.87
2022-08-25T08:07:23.547Z,6.60
2022-08-25T08:10:13.647Z,7.03
2022-08-25T08:12:40.195Z,6.57
2022-08-25T08:15:10.131Z,7.83
2022-08-25T08:17:39.765Z,6.93
2022-08-25T08:20:09.005Z,6.70
2022-08-25T08:22:38.249Z,7.83
2022-08-25T08:25:06.497Z,7.10
2022-08-25T08:27:37.586Z,6.90
2022-08-25T08:30:05.683Z,7.10
2022-08-25T08:32:52.983Z,6.93
2022-08-25T08:35:19.058Z,6.90
2022-08-25T08:37:46.204Z,7.07
2022-08-25T08:40:16.002Z,6.77
2022-08-25T08:42:52.727Z,7.67
2022-08-25T08:45:40.141Z,6.77
2022-08-25T08:48:26.081Z,6.43
2022-08-25T08:51:00.358Z,6.30
2022-08-25T08:53:48.998Z,6.50
2022-08-25T08:56:23.507Z,6.10
2022-08-25T08:58:55.573Z,6.70
2022-08-25T09:01:28.196Z,6.80
2022-08-25T09:04:03.021Z,7.10
2022-08-25T09:06:38.175Z,8.10
2022-08-25T09:09:07.058Z,7.70
2022-08-25T09:12:00.889Z,7.03
2022-08-25T09:14:56.560Z,7.43
2022-08-25T09:17:54.597Z,6.80
2022-08-25T09:20:39.884Z,6.80
2022-08-25T09:23:15.479Z,6.93
2022-08-25T09:26:08.482Z,6.60
2022-08-25T09:28:51.682Z,6.83
2022-08-25T09:31:29.353Z,8.00
2022-08-25T09:33:59.763Z,7.20
2022-08-25T09:36:26.979Z,7.17
2022-08-25T09:38:54.893Z,6.63
2022-08-25T09:41:43.468Z,7.37
2022-08-25T09:44:19.349Z,7.10
2022-08-25T09:47:06.033Z,7.50
2022-08-25T09:49:41.171Z,6.67
2022-08-25T09:52:22.930Z,7.30
2022-08-25T09:54:54.262Z,7.00
2022-08-25T09:57:34.082Z,7.07
2022-08-25T10:00:18.370Z,6.80
2022-08-25T10:03:01.157Z,6.60
2022-08-25T10:05:35.460Z,7.30
2022-08-25T10:08:10.950Z,7.47
2022-08-25T10:10:46.005Z,6.40
2022-08-25T10:13:15.653Z,6.13
2022-08-25T10:16:24.440Z,6.10
2022-08-25T10:19:14.264Z,5.95
2022-08-25T10:21:43.588Z,5.32
2022-08-25T10:24:19.298Z,6.28
2022-08-25T10:27:06.330Z,5.57
2022-08-25T10:29:38.733Z,6.45
2022-08-25T10:32:11.927Z,4.85
2022-08-25T10:34:51.661Z,6.18
2022-08-25T10:37:41.151Z,5.97
2022-08-25T10:40:16.741Z,6.03
2022-08-25T10:43:08.438Z,6.82
2022-08-25T10:46:08.880Z,6.25
2022-08-25T10:49:04.098Z,5.35
2022-08-25T10:51:45.224Z,5.32
2022-08-25T10:54:49.572Z,5.38
2022-08-25T10:57:24.319Z,5.20
2022-08-25T11:00:12.705Z,5.25
2022-08-25T11:03:00.309Z,5.55
2022-08-25T11:05:32.946Z,5.87
2022-08-25T11:08:14.810Z,5.65
2022-08-25T11:11:01.908Z,4.63
2022-08-25T11:13:47.595Z,4.82
2022-08-25T11:16:18.741Z,6.23
2022-08-25T11:19:10.594Z,5.13
2022-08-25T11:21:43.104Z,5.78
2022-08-25T11:24:40.848Z,5.00
2022-08-25T11:27:21.623Z,5.40
2022-08-25T11:30:03.334Z,5.60
2022-08-25T11:32:35.485Z,5.60
2022-08-25T11:35:06.832Z,5.53
2022-08-25T11:37:34.430Z,5.90
2022-08-25T11:40:11.010Z,5.80
2022-08-25T11:42:44.070Z,5.88
2022-08-25T11:45:26.996Z,6.80
2022-08-25T11:48:12.621Z,5.15
2022-08-25T11:51:01.600Z,5.70
2022-08-25T11:53:34.832Z,6.20
2022-08-25T11:56:31.615Z,6.00
2022-08-25T11:58:59.456Z,5.87
2022-08-25T12:01:43.919Z,6.27
2022-08-25T12:04:17.257Z,12.27
2022-08-25T12:07:05.863Z,7.23
2022-08-25T12:09:34.722Z,6.83
2022-08-25T12:12:27.211Z,6.70
2022-08-25T12:14:53.860Z,6.23
2022-08-25T12:17:25.562Z,5.60
2022-08-25T12:19:58.445Z,5.80
2022-08-25T12:22:26.950Z,6.53
2022-08-25T12:25:29.945Z,6.40
2022-08-25T12:28:00.662Z,6.20
2022-08-25T12:30:50.532Z,6.23
2022-08-25T12:33:26.307Z,5.47
2022-08-25T12:36:02.078Z,6.10
2022-08-25T12:38:42.535Z,6.17
2022-08-25T12:41:33.608Z,6.77
2022-08-25T12:44:34.803Z,6.07
2022-08-25T12:47:19.529Z,6.20
2022-08-25T12:49:50.822Z,5.60
2022-08-25T12:52:21.415Z,5.80
2022-08-25T12:54:58.188Z,6.30
2022-08-25T12:57:40.691Z,5.70
2022-08-25T13:00:46.481Z,5.67
2022-08-25T13:03:27.025Z,6.60
2022-08-25T13:06:22.115Z,6.27
2022-08-25T13:08:56.909Z,6.17
2022-08-25T13:11:35.134Z,5.72
2022-08-25T13:14:17.728Z,5.77
2022-08-25T13:16:56.159Z,7.07
2022-08-25T13:19:25.518Z,6.20
2022-08-25T13:21:54.614Z,6.80
2022-08-25T13:24:40.385Z,6.37
2022-08-25T13:27:18.007Z,5.60
2022-08-25T13:29:54.293Z,6.28
2022-08-25T13:32:32.017Z,5.57
2022-08-25T13:35:20.731Z,5.90
2022-08-25T13:37:48.247Z,5.47
2022-08-25T13:40:29.691Z,5.90
2022-08-25T13:43:02.834Z,5.80
2022-08-25T13:45:41.551Z,5.53
2022-08-25T13:48:23.080Z,5.37
2022-08-25T13:50:53.166Z,4.80
2022-08-25T13:53:25.781Z,5.63
2022-08-25T13:55:57.201Z,5.63
2022-08-25T13:58:44.675Z,5.00
2022-08-25T14:01:22.264Z,4.95
2022-08-25T14:04:25.918Z,5.65
2022-08-25T14:07:20.768Z,5.35
2022-08-25T14:09:57.201Z,5.43
2022-08-25T14:12:29.379Z,6.43
2022-08-25T14:15:00.142Z,5.25
2022-08-25T14:17:39.810Z,4.90
2022-08-25T14:20:28.887Z,5.18
2022-08-25T14:22:59.408Z,4.68
2022-08-25T14:25:30.473Z,5.18
2022-08-25T14:28:07.131Z,4.43
2022-08-25T14:30:36.966Z,4.33
2022-08-25T14:33:04.661Z,5.15
2022-08-25T14:35:34.402Z,4.10
2022-08-25T14:38:11.355Z,4.13
2022-08-25T14:40:38.579Z,4.93
2022-08-25T14:43:09.562Z,4.20
2022-08-25T14:45:39.752Z,4.30
2022-08-25T14:48:10.891Z,4.03
2022-08-25T14:50:41.930Z,4.27
2022-08-25T14:53:10.367Z,4.17
2022-08-25T14:55:37.696Z,3.50
2022-08-25T14:58:06.752Z,3.70
2022-08-25T15:00:40.157Z,3.78
2022-08-25T15:03:07.734Z,4.18
2022-08-25T15:05:34.603Z,4.28
2022-08-25T15:08:19.810Z,3.73
2022-08-25T15:10:47.587Z,3.87
2022-08-25T15:13:15.031Z,3.63
2022-08-25T15:15:52.442Z,3.67
2022-08-25T15:18:21.064Z,3.75
2022-08-25T15:20:50.140Z,3.83
2022-08-25T15:23:18.458Z,4.10
2022-08-25T15:25:47.348Z,4.60
2022-08-25T15:28:17.246Z,4.93
2022-08-25T15:30:45.657Z,4.28
2022-08-25T15:33:13.380Z,4.32
2022-08-25T15:35:40.943Z,4.90
2022-08-25T15:38:08.563Z,4.03
2022-08-25T15:40:37.543Z,4.45
2022-08-25T15:43:05.632Z,3.70
2022-08-25T15:45:35.737Z,4.53
2022-08-25T15:48:02.633Z,3.78
2022-08-25T15:50:30.415Z,3.70
2022-08-25T15:52:57.804Z,3.67
2022-08-25T15:55:24.847Z,4.72
2022-08-25T15:57:52.013Z,4.15
2022-08-25T16:00:19.777Z,3.20
2022-08-25T16:02:48.236Z,5.28
2022-08-25T16:05:16.533Z,4.30
2022-08-25T16:07:45.913Z,4.15
2022-08-25T16:10:13.540Z,4.40
2022-08-25T16:12:40.394Z,3.55
2022-08-25T16:15:10.030Z,3.67
2022-08-25T16:17:40.782Z,3.90
2022-08-25T16:20:12.621Z,4.30
2022-08-25T16:22:41.032Z,3.65
2022-08-25T16:25:08.229Z,4.38
2022-08-25T16:27:38.742Z,4.07
2022-08-25T16:30:14.937Z,3.88
2022-08-25T16:32:44.333Z,3.95
2022-08-25T16:35:11.410Z,4.68
2022-08-25T16:37:38.180Z,4.40
2022-08-25T16:40:08.374Z,3.50
2022-08-25T16:42:35.158Z,3.88
2022-08-25T16:45:01.875Z,3.90
2022-08-25T16:47:36.977Z,4.50
2022-08-25T16:50:06.732Z,4.10
2022-08-25T16:52:52.228Z,4.10
2022-08-25T16:55:20.809Z,4.82
2022-08-25T16:57:54.151Z,4.70
2022-08-25T17:00:29.794Z,4.22
2022-08-25T17:02:59.466Z,4.43
2022-08-25T17:05:29.069Z,4.30
2022-08-25T17:08:17.008Z,4.28
2022-08-25T17:10:44.098Z,4.40
2022-08-25T17:13:12.765Z,4.18
2022-08-25T17:15:46.770Z,4.47
2022-08-25T17:18:13.750Z,4.40
2022-08-25T17:20:43.293Z,5.53
2022-08-25T17:23:12.033Z,4.13
2022-08-25T17:25:42.838Z,4.67
2022-08-25T17:28:12.339Z,4.07
2022-08-25T17:30:40.310Z,4.43
2022-08-25T17:33:06.961Z,4.77
2022-08-25T17:35:39.930Z,4.85
2022-08-25T17:38:07.097Z,5.25
2022-08-25T17:40:35.810Z,4.68
2022-08-25T17:43:02.725Z,4.63
2022-08-25T17:45:29.499Z,4.22
2022-08-25T17:47:57.994Z,4.70
2022-08-25T17:50:25.310Z,5.45
2022-08-25T17:52:52.919Z,4.60
2022-08-25T17:55:24.224Z,4.70
2022-08-25T17:57:51.792Z,4.05
2022-08-25T18:00:21.066Z,4.43
2022-08-25T18:02:48.443Z,4.65
2022-08-25T18:05:16.579Z,4.80
2022-08-25T18:07:44.005Z,4.30
2022-08-25T18:10:11.198Z,4.60
2022-08-25T18:12:38.638Z,4.70
2022-08-25T18:15:06.992Z,6.13
2022-08-25T18:17:35.718Z,4.80
2022-08-25T18:20:06.260Z,5.07
2022-08-25T18:22:33.280Z,4.73
2022-08-25T18:25:00.109Z,4.50
2022-08-25T18:27:28.352Z,4.53
2022-08-25T18:29:56.031Z,4.27
2022-08-25T18:32:26.011Z,4.30
2022-08-25T18:34:53.310Z,4.13
2022-08-25T18:37:39.374Z,4.90
2022-08-25T18:40:25.577Z,5.40
2022-08-25T18:42:53.669Z,4.40
2022-08-25T18:45:24.172Z,4.70
2022-08-25T18:47:58.303Z,4.50
2022-08-25T18:50:29.201Z,4.07
2022-08-25T18:52:56.733Z,4.53
2022-08-25T18:55:24.138Z,4.13
2022-08-25T18:57:51.400Z,5.47
2022-08-25T19:00:22.369Z,4.83
2022-08-25T19:02:51.302Z,5.20
2022-08-25T19:05:22.583Z,5.23
2022-08-25T19:07:51.950Z,4.93
2022-08-25T19:10:20.541Z,5.47
2022-08-25T19:12:50.872Z,5.23
2022-08-25T19:15:18.224Z,4.90
2022-08-25T19:17:53.009Z,5.00
2022-08-25T19:20:21.413Z,4.60
2022-08-25T19:22:49.134Z,5.20
2022-08-25T19:25:16.152Z,5.10
2022-08-25T19:27:43.876Z,4.90
2022-08-25T19:30:13.116Z,4.63
2022-08-25T19:32:42.437Z,4.30
2022-08-25T19:35:32.004Z,5.60
2022-08-25T19:38:00.681Z,5.20
2022-08-25T19:40:29.459Z,5.00
2022-08-25T19:42:56.926Z,5.30
2022-08-25T19:45:24.405Z,5.00
2022-08-25T19:47:51.913Z,5.00
2022-08-25T19:50:21.330Z,6.07
2022-08-25T19:52:48.199Z,5.60
2022-08-25T19:55:16.812Z,4.87
2022-08-25T19:57:45.574Z,5.33
2022-08-25T20:00:19.675Z,4.77
2022-08-25T20:02:47.391Z,5.47
2022-08-25T20:05:15.273Z,5.20
2022-08-25T20:07:42.084Z,4.60
2022-08-25T20:10:14.214Z,4.30
2022-08-25T20:12:41.372Z,4.73
2022-08-25T20:15:09.146Z,4.97
2022-08-25T20:17:36.027Z,5.00
2022-08-25T20:20:06.084Z,5.40
2022-08-25T20:22:33.560Z,4.47
2022-08-25T20:25:13.759Z,5.33
2022-08-25T20:27:47.285Z,5.73
2022-08-25T20:30:26.918Z,5.73
2022-08-25T20:32:55.457Z,4.87
2022-08-25T20:35:26.409Z,5.20
2022-08-25T20:37:54.599Z,5.43
2022-08-25T20:40:25.775Z,4.67
2022-08-25T20:42:53.076Z,5.23
2022-08-25T20:45:23.536Z,5.43
2022-08-25T20:47:50.721Z,5.40
2022-08-25T20:50:17.975Z,5.37
2022-08-25T20:52:44.691Z,4.80
2022-08-25T20:55:12.263Z,5.23
2022-08-25T20:57:39.448Z,4.97
2022-08-25T21:00:06.979Z,5.13
2022-08-25T21:02:33.990Z,5.37
2022-08-25T21:05:01.832Z,5.30
2022-08-25T21:07:28.989Z,4.70
2022-08-25T21:09:57.687Z,5.43
2022-08-25T21:12:24.355Z,5.60
2022-08-25T21:14:51.795Z,5.00
2022-08-25T21:17:19.806Z,5.57
2022-08-25T21:19:50.003Z,4.93
2022-08-25T21:22:16.831Z,4.73
2022-08-25T21:24:43.981Z,5.17
2022-08-25T21:27:11.501Z,5.03
2022-08-25T21:29:38.337Z,5.07
2022-08-25T21:32:11.190Z,5.37
2022-08-25T21:34:38.036Z,5.30
2022-08-25T21:37:05.434Z,5.73
2022-08-25T21:39:33.074Z,4.83
2022-08-25T21:42:00.434Z,5.20
2022-08-25T21:44:28.715Z,5.40
2022-08-25T21:46:56.369Z,6.00
2022-08-25T21:49:24.955Z,4.77
2022-08-25T21:52:00.370Z,5.30
2022-08-25T21:54:28.759Z,4.57
2022-08-25T21:56:59.883Z,5.63
2022-08-25T21:59:32.763Z,6.00
2022-08-25T22:02:05.486Z,5.70
2022-08-25T22:04:33.404Z,5.30
2022-08-25T22:07:00.430Z,5.00
2022-08-25T22:09:29.688Z,5.80
2022-08-25T22:11:57.083Z,5.67
2022-08-25T22:14:26.514Z,6.20
2022-08-25T22:16:54.598Z,5.07
2022-08-25T22:19:22.768Z,5.57
2022-08-25T22:21:51.090Z,5.60
2022-08-25T22:24:18.278Z,5.30
2022-08-25T22:26:47.709Z,5.90
2022-08-25T22:29:23.631Z,5.57
2022-08-25T22:31:59.432Z,6.13
2022-08-25T22:34:34.160Z,5.17
2022-08-25T22:37:02.341Z,4.50
2022-08-25T22:39:30.886Z,5.17
2022-08-25T22:41:57.636Z,5.30
2022-08-25T22:44:25.642Z,5.30
2022-08-25T22:46:52.757Z,5.37
2022-08-25T22:49:19.568Z,5.40
2022-08-25T22:51:47.672Z,6.30
2022-08-25T22:54:16.213Z,5.10
2022-08-25T22:56:43.318Z,5.87
2022-08-25T22:59:12.863Z,5.83
2022-08-25T23:01:40.924Z,5.90
2022-08-25T23:04:08.019Z,6.27
2022-08-25T23:06:35.602Z,6.50
2022-08-25T23:09:04.794Z,5.90
2022-08-25T23:11:31.538Z,6.20
2022-08-25T23:14:05.463Z,6.30
2022-08-25T23:16:33.036Z,5.40
2022-08-25T23:19:00.578Z,5.60
2022-08-25T23:21:46.873Z,5.60
2022-08-25T23:24:14.918Z,5.50
2022-08-25T23:26:57.126Z,5.40
2022-08-25T23:29:23.820Z,5.60
2022-08-25T23:31:52.062Z,6.00
2022-08-25T23:34:21.484Z,5.77
2022-08-25T23:36:48.833Z,5.77
2022-08-25T23:39:15.679Z,5.37
2022-08-25T23:41:42.470Z,5.53
2022-08-25T23:44:11.852Z,5.70
2022-08-25T23:46:44.594Z,5.20
2022-08-25T23:49:11.582Z,5.97
2022-08-25T23:51:38.641Z,5.40
2022-08-25T23:54:09.431Z,5.73
2022-08-25T23:56:44.747Z,6.17
2022-08-25T23:59:19.768Z,5.77
